sensor_id;sensor_type;location;lat;lon;timestamp;P1;durP1;ratioP1;P2;durP2;ratioP2
15254;SDS011;7730;49.610;11.136;2024-03-07T00:00:09;15.23;;;8.30;;
15254;SDS011;7730;49.610;11.136;2024-03-07T00:02:40;13.80;;;7.97;;
15254;SDS011;7730;49.610;11.136;2024-03-07T00:05:07;15.70;;;7.50;;
15254;SDS011;7730;49.610;11.136;2024-03-07T00:07:35;15.73;;;8.02;;
15254;SDS011;7730;49.610;11.136;2024-03-07T00:10:02;14.27;;;8.02;;
15254;SDS011;7730;49.610;11.136;2024-03-07T00:12:33;14.27;;;8.13;;
15254;SDS011;7730;49.610;11.136;2024-03-07T00:15:01;16.02;;;7.88;;
15254;SDS011;7730;49.610;11.136;2024-03-07T00:17:28;13.85;;;7.88;;
15254;SDS011;7730;49.610;11.136;2024-03-07T00:19:55;13.90;;;7.63;;
15254;SDS011;7730;49.610;11.136;2024-03-07T00:22:22;14.73;;;7.97;;
15254;SDS011;7730;49.610;11.136;2024-03-07T00:24:51;15.70;;;8.05;;
15254;SDS011;7730;49.610;11.136;2024-03-07T00:27:18;14.25;;;7.82;;
15254;SDS011;7730;49.610;11.136;2024-03-07T00:29:47;13.50;;;8.30;;
15254;SDS011;7730;49.610;11.136;2024-03-07T00:32:18;14.85;;;7.75;;
15254;SDS011;7730;49.610;11.136;2024-03-07T00:34:45;14.38;;;7.93;;
15254;SDS011;7730;49.610;11.136;2024-03-07T00:37:12;14.23;;;7.78;;
15254;SDS011;7730;49.610;11.136;2024-03-07T00:39:39;14.13;;;7.68;;
15254;SDS011;7730;49.610;11.136;2024-03-07T00:42:06;14.18;;;7.97;;
15254;SDS011;7730;49.610;11.136;2024-03-07T00:44:33;14.38;;;7.63;;
15254;SDS011;7730;49.610;11.136;2024-03-07T00:47:02;15.05;;;8.48;;
15254;SDS011;7730;49.610;11.136;2024-03-07T00:49:29;14.68;;;8.68;;
15254;SDS011;7730;49.610;11.136;2024-03-07T00:51:58;14.18;;;7.88;;
15254;SDS011;7730;49.610;11.136;2024-03-07T00:54:25;14.60;;;8.20;;
15254;SDS011;7730;49.610;11.136;2024-03-07T00:56:52;13.15;;;7.38;;
15254;SDS011;7730;49.610;11.136;2024-03-07T00:59:20;13.77;;;7.65;;
15254;SDS011;7730;49.610;11.136;2024-03-07T01:01:47;14.27;;;8.18;;
15254;SDS011;7730;49.610;11.136;2024-03-07T01:04:16;13.63;;;7.60;;
15254;SDS011;7730;49.610;11.136;2024-03-07T01:06:43;13.35;;;7.55;;
15254;SDS011;7730;49.610;11.136;2024-03-07T01:09:10;13.75;;;7.90;;
15254;SDS011;7730;49.610;11.136;2024-03-07T01:11:40;13.98;;;7.78;;
15254;SDS011;7730;49.610;11.136;2024-03-07T01:14:07;13.20;;;7.30;;
15254;SDS011;7730;49.610;11.136;2024-03-07T01:16:34;13.98;;;7.35;;
15254;SDS011;7730;49.610;11.136;2024-03-07T01:19:01;13.15;;;7.32;;
15254;SDS011;7730;49.610;11.136;2024-03-07T01:21:32;13.98;;;7.63;;
15254;SDS011;7730;49.610;11.136;2024-03-07T01:23:59;14.68;;;7.93;;
15254;SDS011;7730;49.610;11.136;2024-03-07T01:26:27;14.13;;;7.78;;
15254;SDS011;7730;49.610;11.136;2024-03-07T01:28:54;13.55;;;8.05;;
15254;SDS011;7730;49.610;11.136;2024-03-07T01:31:21;13.57;;;7.68;;
15254;SDS011;7730;49.610;11.136;2024-03-07T01:33:49;13.43;;;7.57;;
15254;SDS011;7730;49.610;11.136;2024-03-07T01:36:16;14.75;;;7.00;;
15254;SDS011;7730;49.610;11.136;2024-03-07T01:38:45;14.05;;;7.20;;
15254;SDS011;7730;49.610;11.136;2024-03-07T01:41:12;13.02;;;7.03;;
15254;SDS011;7730;49.610;11.136;2024-03-07T01:43:39;12.70;;;6.90;;
15254;SDS011;7730;49.610;11.136;2024-03-07T01:46:06;12.82;;;6.97;;
15254;SDS011;7730;49.610;11.136;2024-03-07T01:48:35;14.13;;;7.05;;
15254;SDS011;7730;49.610;11.136;2024-03-07T01:51:03;12.80;;;6.87;;
15254;SDS011;7730;49.610;11.136;2024-03-07T01:53:30;14.38;;;6.85;;
15254;SDS011;7730;49.610;11.136;2024-03-07T01:55:59;13.13;;;6.57;;
15254;SDS011;7730;49.610;11.136;2024-03-07T01:58:27;13.70;;;7.20;;
15254;SDS011;7730;49.610;11.136;2024-03-07T02:00:55;12.65;;;6.97;;
15254;SDS011;7730;49.610;11.136;2024-03-07T02:03:23;12.60;;;6.78;;
15254;SDS011;7730;49.610;11.136;2024-03-07T02:05:50;13.73;;;7.00;;
15254;SDS011;7730;49.610;11.136;2024-03-07T02:08:17;14.02;;;7.82;;
15254;SDS011;7730;49.610;11.136;2024-03-07T02:10:44;13.48;;;7.28;;
15254;SDS011;7730;49.610;11.136;2024-03-07T02:13:14;14.00;;;7.70;;
15254;SDS011;7730;49.610;11.136;2024-03-07T02:15:41;12.68;;;6.95;;
15254;SDS011;7730;49.610;11.136;2024-03-07T02:18:08;15.25;;;8.20;;
15254;SDS011;7730;49.610;11.136;2024-03-07T02:20:35;14.05;;;7.90;;
15254;SDS011;7730;49.610;11.136;2024-03-07T02:23:04;13.45;;;7.60;;
15254;SDS011;7730;49.610;11.136;2024-03-07T02:25:31;14.07;;;8.05;;
15254;SDS011;7730;49.610;11.136;2024-03-07T02:28:02;13.77;;;7.85;;
15254;SDS011;7730;49.610;11.136;2024-03-07T02:30:29;14.63;;;8.77;;
15254;SDS011;7730;49.610;11.136;2024-03-07T02:32:57;13.77;;;7.55;;
15254;SDS011;7730;49.610;11.136;2024-03-07T02:35:31;14.60;;;8.13;;
15254;SDS011;7730;49.610;11.136;2024-03-07T02:37:58;13.68;;;7.72;;
15254;SDS011;7730;49.610;11.136;2024-03-07T02:40:26;13.77;;;7.88;;
15254;SDS011;7730;49.610;11.136;2024-03-07T02:42:53;14.48;;;8.30;;
15254;SDS011;7730;49.610;11.136;2024-03-07T02:45:20;14.07;;;7.70;;
15254;SDS011;7730;49.610;11.136;2024-03-07T02:47:47;13.52;;;7.22;;
15254;SDS011;7730;49.610;11.136;2024-03-07T02:50:14;13.50;;;7.28;;
15254;SDS011;7730;49.610;11.136;2024-03-07T02:52:41;12.80;;;7.15;;
15254;SDS011;7730;49.610;11.136;2024-03-07T02:55:08;14.32;;;7.47;;
15254;SDS011;7730;49.610;11.136;2024-03-07T02:57:37;13.70;;;7.00;;
15254;SDS011;7730;49.610;11.136;2024-03-07T03:00:05;14.07;;;7.38;;
15254;SDS011;7730;49.610;11.136;2024-03-07T03:02:44;13.07;;;6.80;;
15254;SDS011;7730;49.610;11.136;2024-03-07T03:05:12;13.25;;;6.97;;
15254;SDS011;7730;49.610;11.136;2024-03-07T03:07:39;13.65;;;7.15;;
15254;SDS011;7730;49.610;11.136;2024-03-07T03:10:06;14.77;;;7.35;;
15254;SDS011;7730;49.610;11.136;2024-03-07T03:12:34;13.52;;;7.43;;
15254;SDS011;7730;49.610;11.136;2024-03-07T03:15:03;14.85;;;8.57;;
15254;SDS011;7730;49.610;11.136;2024-03-07T03:17:31;14.75;;;8.43;;
15254;SDS011;7730;49.610;11.136;2024-03-07T03:19:58;15.70;;;9.00;;
15254;SDS011;7730;49.610;11.136;2024-03-07T03:22:26;15.20;;;9.50;;
15254;SDS011;7730;49.610;11.136;2024-03-07T03:24:53;15.47;;;9.37;;
15254;SDS011;7730;49.610;11.136;2024-03-07T03:27:20;15.30;;;8.55;;
15254;SDS011;7730;49.610;11.136;2024-03-07T03:29:48;13.88;;;8.20;;
15254;SDS011;7730;49.610;11.136;2024-03-07T03:32:17;15.27;;;8.35;;
15254;SDS011;7730;49.610;11.136;2024-03-07T03:34:44;14.57;;;8.40;;
15254;SDS011;7730;49.610;11.136;2024-03-07T03:37:11;14.48;;;8.40;;
15254;SDS011;7730;49.610;11.136;2024-03-07T03:39:39;13.30;;;7.50;;
15254;SDS011;7730;49.610;11.136;2024-03-07T03:42:07;14.27;;;8.18;;
15254;SDS011;7730;49.610;11.136;2024-03-07T03:44:34;14.27;;;7.82;;
15254;SDS011;7730;49.610;11.136;2024-03-07T03:47:01;14.00;;;7.80;;
15254;SDS011;7730;49.610;11.136;2024-03-07T03:49:30;14.15;;;7.97;;
15254;SDS011;7730;49.610;11.136;2024-03-07T03:51:57;14.60;;;8.00;;
15254;SDS011;7730;49.610;11.136;2024-03-07T03:54:24;14.30;;;8.33;;
15254;SDS011;7730;49.610;11.136;2024-03-07T03:56:53;13.68;;;8.38;;
15254;SDS011;7730;49.610;11.136;2024-03-07T03:59:20;13.75;;;7.53;;
15254;SDS011;7730;49.610;11.136;2024-03-07T04:01:47;13.65;;;7.65;;
15254;SDS011;7730;49.610;11.136;2024-03-07T04:04:14;13.15;;;7.50;;
15254;SDS011;7730;49.610;11.136;2024-03-07T04:06:42;13.93;;;7.45;;
15254;SDS011;7730;49.610;11.136;2024-03-07T04:09:10;13.52;;;7.72;;
15254;SDS011;7730;49.610;11.136;2024-03-07T04:11:40;13.73;;;7.30;;
15254;SDS011;7730;49.610;11.136;2024-03-07T04:14:08;13.20;;;7.10;;
15254;SDS011;7730;49.610;11.136;2024-03-07T04:16:35;13.90;;;7.40;;
15254;SDS011;7730;49.610;11.136;2024-03-07T04:19:02;13.48;;;7.60;;
15254;SDS011;7730;49.610;11.136;2024-03-07T04:21:29;15.05;;;7.63;;
15254;SDS011;7730;49.610;11.136;2024-03-07T04:23:58;14.15;;;8.02;;
15254;SDS011;7730;49.610;11.136;2024-03-07T04:26:26;18.20;;;11.10;;
15254;SDS011;7730;49.610;11.136;2024-03-07T04:28:53;14.90;;;8.45;;
15254;SDS011;7730;49.610;11.136;2024-03-07T04:31:20;15.25;;;8.65;;
15254;SDS011;7730;49.610;11.136;2024-03-07T04:33:47;15.33;;;8.60;;
15254;SDS011;7730;49.610;11.136;2024-03-07T04:36:14;14.80;;;8.77;;
15254;SDS011;7730;49.610;11.136;2024-03-07T04:38:41;18.17;;;11.50;;
15254;SDS011;7730;49.610;11.136;2024-03-07T04:41:11;16.20;;;10.00;;
15254;SDS011;7730;49.610;11.136;2024-03-07T04:43:40;15.10;;;8.57;;
15254;SDS011;7730;49.610;11.136;2024-03-07T04:46:08;16.60;;;9.00;;
15254;SDS011;7730;49.610;11.136;2024-03-07T04:48:35;14.88;;;8.68;;
15254;SDS011;7730;49.610;11.136;2024-03-07T04:51:02;14.07;;;8.05;;
15254;SDS011;7730;49.610;11.136;2024-03-07T04:53:29;14.30;;;7.38;;
15254;SDS011;7730;49.610;11.136;2024-03-07T04:55:56;15.13;;;7.90;;
15254;SDS011;7730;49.610;11.136;2024-03-07T04:58:25;14.65;;;8.70;;
15254;SDS011;7730;49.610;11.136;2024-03-07T05:00:52;14.45;;;8.50;;
15254;SDS011;7730;49.610;11.136;2024-03-07T05:03:19;15.23;;;9.00;;
15254;SDS011;7730;49.610;11.136;2024-03-07T05:05:46;14.40;;;8.60;;
15254;SDS011;7730;49.610;11.136;2024-03-07T05:08:13;15.70;;;8.60;;
15254;SDS011;7730;49.610;11.136;2024-03-07T05:10:41;14.45;;;8.43;;
15254;SDS011;7730;49.610;11.136;2024-03-07T05:13:08;14.90;;;8.98;;
15254;SDS011;7730;49.610;11.136;2024-03-07T05:15:37;21.83;;;13.90;;
15254;SDS011;7730;49.610;11.136;2024-03-07T05:18:04;25.70;;;17.47;;
15254;SDS011;7730;49.610;11.136;2024-03-07T05:20:31;23.83;;;16.63;;
15254;SDS011;7730;49.610;11.136;2024-03-07T05:22:59;26.93;;;18.67;;
15254;SDS011;7730;49.610;11.136;2024-03-07T05:25:26;25.40;;;17.70;;
15254;SDS011;7730;49.610;11.136;2024-03-07T05:27:53;29.07;;;20.93;;
15254;SDS011;7730;49.610;11.136;2024-03-07T05:30:20;23.27;;;16.48;;
15254;SDS011;7730;49.610;11.136;2024-03-07T05:32:51;19.33;;;13.15;;
15254;SDS011;7730;49.610;11.136;2024-03-07T05:35:18;19.15;;;12.40;;
15254;SDS011;7730;49.610;11.136;2024-03-07T05:37:46;18.73;;;12.88;;
15254;SDS011;7730;49.610;11.136;2024-03-07T05:40:13;19.87;;;12.47;;
15254;SDS011;7730;49.610;11.136;2024-03-07T05:42:40;17.17;;;9.97;;
15254;SDS011;7730;49.610;11.136;2024-03-07T05:45:07;16.50;;;10.17;;
15254;SDS011;7730;49.610;11.136;2024-03-07T05:47:35;15.70;;;9.33;;
15254;SDS011;7730;49.610;11.136;2024-03-07T05:50:04;14.98;;;9.52;;
15254;SDS011;7730;49.610;11.136;2024-03-07T05:52:33;15.27;;;9.25;;
15254;SDS011;7730;49.610;11.136;2024-03-07T05:55:01;15.03;;;9.23;;
15254;SDS011;7730;49.610;11.136;2024-03-07T05:57:28;17.83;;;10.43;;
15254;SDS011;7730;49.610;11.136;2024-03-07T05:59:55;16.70;;;9.57;;
15254;SDS011;7730;49.610;11.136;2024-03-07T06:02:22;17.27;;;9.37;;
15254;SDS011;7730;49.610;11.136;2024-03-07T06:04:49;16.67;;;9.82;;
15254;SDS011;7730;49.610;11.136;2024-03-07T06:07:17;17.80;;;9.57;;
15254;SDS011;7730;49.610;11.136;2024-03-07T06:09:46;17.77;;;10.35;;
15254;SDS011;7730;49.610;11.136;2024-03-07T06:12:13;17.50;;;10.98;;
15254;SDS011;7730;49.610;11.136;2024-03-07T06:14:40;18.08;;;10.88;;
15254;SDS011;7730;49.610;11.136;2024-03-07T06:17:07;16.83;;;10.38;;
15254;SDS011;7730;49.610;11.136;2024-03-07T06:19:35;19.15;;;10.32;;
15254;SDS011;7730;49.610;11.136;2024-03-07T06:22:02;15.43;;;9.45;;
15254;SDS011;7730;49.610;11.136;2024-03-07T06:24:35;17.13;;;10.27;;
15254;SDS011;7730;49.610;11.136;2024-03-07T06:27:05;16.77;;;10.77;;
15254;SDS011;7730;49.610;11.136;2024-03-07T06:29:41;16.87;;;10.77;;
15254;SDS011;7730;49.610;11.136;2024-03-07T06:32:08;16.13;;;9.85;;
15254;SDS011;7730;49.610;11.136;2024-03-07T06:34:35;16.97;;;10.47;;
15254;SDS011;7730;49.610;11.136;2024-03-07T06:37:03;17.90;;;10.47;;
15254;SDS011;7730;49.610;11.136;2024-03-07T06:39:30;16.08;;;9.90;;
15254;SDS011;7730;49.610;11.136;2024-03-07T06:41:59;17.00;;;10.43;;
15254;SDS011;7730;49.610;11.136;2024-03-07T06:44:26;17.17;;;10.23;;
15254;SDS011;7730;49.610;11.136;2024-03-07T06:46:53;16.50;;;10.07;;
15254;SDS011;7730;49.610;11.136;2024-03-07T06:49:20;18.50;;;10.80;;
15254;SDS011;7730;49.610;11.136;2024-03-07T06:51:47;15.73;;;9.38;;
15254;SDS011;7730;49.610;11.136;2024-03-07T06:54:14;18.02;;;10.80;;
15254;SDS011;7730;49.610;11.136;2024-03-07T06:56:41;18.08;;;10.80;;
15254;SDS011;7730;49.610;11.136;2024-03-07T06:59:11;19.15;;;11.57;;
15254;SDS011;7730;49.610;11.136;2024-03-07T07:01:39;16.88;;;10.68;;
15254;SDS011;7730;49.610;11.136;2024-03-07T07:04:08;18.50;;;11.30;;
15254;SDS011;7730;49.610;11.136;2024-03-07T07:06:35;19.67;;;11.38;;
15254;SDS011;7730;49.610;11.136;2024-03-07T07:09:02;17.53;;;10.60;;
15254;SDS011;7730;49.610;11.136;2024-03-07T07:11:31;16.53;;;11.03;;
15254;SDS011;7730;49.610;11.136;2024-03-07T07:13:58;18.50;;;10.68;;
15254;SDS011;7730;49.610;11.136;2024-03-07T07:16:26;17.65;;;10.43;;
15254;SDS011;7730;49.610;11.136;2024-03-07T07:18:54;17.77;;;10.77;;
15254;SDS011;7730;49.610;11.136;2024-03-07T07:21:21;20.80;;;11.10;;
15254;SDS011;7730;49.610;11.136;2024-03-07T07:23:48;19.20;;;11.57;;
15254;SDS011;7730;49.610;11.136;2024-03-07T07:26:16;21.83;;;11.33;;
15254;SDS011;7730;49.610;11.136;2024-03-07T07:28:43;21.95;;;11.88;;
15254;SDS011;7730;49.610;11.136;2024-03-07T07:31:10;22.70;;;12.37;;
15254;SDS011;7730;49.610;11.136;2024-03-07T07:33:38;20.93;;;12.00;;
15254;SDS011;7730;49.610;11.136;2024-03-07T07:36:05;20.10;;;12.40;;
15254;SDS011;7730;49.610;11.136;2024-03-07T07:38:32;18.90;;;11.80;;
15254;SDS011;7730;49.610;11.136;2024-03-07T07:40:59;19.40;;;11.73;;
15254;SDS011;7730;49.610;11.136;2024-03-07T07:43:26;20.23;;;11.57;;
15254;SDS011;7730;49.610;11.136;2024-03-07T07:45:53;17.00;;;9.83;;
15254;SDS011;7730;49.610;11.136;2024-03-07T07:48:20;16.10;;;9.87;;
15254;SDS011;7730;49.610;11.136;2024-03-07T07:50:49;16.95;;;9.77;;
15254;SDS011;7730;49.610;11.136;2024-03-07T07:53:17;17.23;;;9.77;;
15254;SDS011;7730;49.610;11.136;2024-03-07T07:55:44;16.13;;;10.07;;
15254;SDS011;7730;49.610;11.136;2024-03-07T07:58:11;16.17;;;10.00;;
15254;SDS011;7730;49.610;11.136;2024-03-07T08:00:38;16.17;;;10.00;;
15254;SDS011;7730;49.610;11.136;2024-03-07T08:03:08;15.88;;;9.88;;
15254;SDS011;7730;49.610;11.136;2024-03-07T08:05:36;16.00;;;10.15;;
15254;SDS011;7730;49.610;11.136;2024-03-07T08:08:05;17.40;;;10.70;;
15254;SDS011;7730;49.610;11.136;2024-03-07T08:10:32;15.90;;;9.85;;
15254;SDS011;7730;49.610;11.136;2024-03-07T08:13:00;16.58;;;10.48;;
15254;SDS011;7730;49.610;11.136;2024-03-07T08:15:28;17.33;;;10.55;;
15254;SDS011;7730;49.610;11.136;2024-03-07T08:17:55;17.02;;;10.45;;
15254;SDS011;7730;49.610;11.136;2024-03-07T08:20:23;18.65;;;10.45;;
15254;SDS011;7730;49.610;11.136;2024-03-07T08:22:50;16.73;;;9.50;;
15254;SDS011;7730;49.610;11.136;2024-03-07T08:25:19;17.27;;;10.50;;
15254;SDS011;7730;49.610;11.136;2024-03-07T08:27:48;16.45;;;10.50;;
15254;SDS011;7730;49.610;11.136;2024-03-07T08:30:15;16.77;;;9.82;;
15254;SDS011;7730;49.610;11.136;2024-03-07T08:32:44;16.63;;;9.93;;
15254;SDS011;7730;49.610;11.136;2024-03-07T08:35:12;16.38;;;10.18;;
15254;SDS011;7730;49.610;11.136;2024-03-07T08:37:41;18.77;;;11.38;;
15254;SDS011;7730;49.610;11.136;2024-03-07T08:40:09;17.17;;;9.90;;
15254;SDS011;7730;49.610;11.136;2024-03-07T08:42:39;17.23;;;11.02;;
15254;SDS011;7730;49.610;11.136;2024-03-07T08:45:07;16.17;;;10.05;;
15254;SDS011;7730;49.610;11.136;2024-03-07T08:47:35;16.90;;;10.43;;
15254;SDS011;7730;49.610;11.136;2024-03-07T08:50:03;16.45;;;10.13;;
15254;SDS011;7730;49.610;11.136;2024-03-07T08:52:33;16.58;;;10.13;;
15254;SDS011;7730;49.610;11.136;2024-03-07T08:55:02;16.90;;;10.30;;
15254;SDS011;7730;49.610;11.136;2024-03-07T08:57:29;16.45;;;10.43;;
15254;SDS011;7730;49.610;11.136;2024-03-07T08:59:57;16.52;;;9.60;;
15254;SDS011;7730;49.610;11.136;2024-03-07T09:02:26;16.73;;;10.30;;
15254;SDS011;7730;49.610;11.136;2024-03-07T09:04:53;18.25;;;10.55;;
15254;SDS011;7730;49.610;11.136;2024-03-07T09:07:20;17.25;;;10.07;;
15254;SDS011;7730;49.610;11.136;2024-03-07T09:09:47;17.58;;;9.63;;
15254;SDS011;7730;49.610;11.136;2024-03-07T09:12:14;16.63;;;9.63;;
15254;SDS011;7730;49.610;11.136;2024-03-07T09:14:41;16.65;;;9.48;;
15254;SDS011;7730;49.610;11.136;2024-03-07T09:17:09;17.13;;;9.13;;
15254;SDS011;7730;49.610;11.136;2024-03-07T09:19:37;16.02;;;9.57;;
15254;SDS011;7730;49.610;11.136;2024-03-07T09:22:04;16.25;;;10.07;;
15254;SDS011;7730;49.610;11.136;2024-03-07T09:24:33;16.45;;;8.25;;
15254;SDS011;7730;49.610;11.136;2024-03-07T09:27:03;16.15;;;9.23;;
15254;SDS011;7730;49.610;11.136;2024-03-07T09:29:30;16.20;;;9.27;;
15254;SDS011;7730;49.610;11.136;2024-03-07T09:31:57;16.35;;;8.98;;
15254;SDS011;7730;49.610;11.136;2024-03-07T09:34:26;16.42;;;8.73;;
15254;SDS011;7730;49.610;11.136;2024-03-07T09:36:55;16.08;;;8.07;;
15254;SDS011;7730;49.610;11.136;2024-03-07T09:39:24;13.02;;;6.25;;
15254;SDS011;7730;49.610;11.136;2024-03-07T09:41:52;14.30;;;7.35;;
15254;SDS011;7730;49.610;11.136;2024-03-07T09:44:20;12.65;;;5.93;;
15254;SDS011;7730;49.610;11.136;2024-03-07T09:46:48;6.35;;;2.38;;
15254;SDS011;7730;49.610;11.136;2024-03-07T09:49:16;12.20;;;5.75;;
15254;SDS011;7730;49.610;11.136;2024-03-07T09:51:45;12.00;;;5.65;;
15254;SDS011;7730;49.610;11.136;2024-03-07T09:54:12;14.70;;;6.70;;
15254;SDS011;7730;49.610;11.136;2024-03-07T09:56:39;13.35;;;6.53;;
15254;SDS011;7730;49.610;11.136;2024-03-07T09:59:08;13.32;;;6.45;;
15254;SDS011;7730;49.610;11.136;2024-03-07T10:01:38;13.50;;;6.75;;
15254;SDS011;7730;49.610;11.136;2024-03-07T10:04:08;12.93;;;5.63;;
15254;SDS011;7730;49.610;11.136;2024-03-07T10:06:39;11.70;;;5.22;;
15254;SDS011;7730;49.610;11.136;2024-03-07T10:09:07;11.32;;;5.22;;
15254;SDS011;7730;49.610;11.136;2024-03-07T10:11:35;13.55;;;6.15;;
15254;SDS011;7730;49.610;11.136;2024-03-07T10:14:02;12.63;;;6.00;;
15254;SDS011;7730;49.610;11.136;2024-03-07T10:16:29;12.38;;;5.70;;
15254;SDS011;7730;49.610;11.136;2024-03-07T10:18:57;13.05;;;7.05;;
15254;SDS011;7730;49.610;11.136;2024-03-07T10:21:26;14.15;;;6.35;;
15254;SDS011;7730;49.610;11.136;2024-03-07T10:24:03;14.20;;;7.53;;
15254;SDS011;7730;49.610;11.136;2024-03-07T10:26:33;14.45;;;7.30;;
15254;SDS011;7730;49.610;11.136;2024-03-07T10:29:00;13.65;;;6.65;;
15254;SDS011;7730;49.610;11.136;2024-03-07T10:31:28;13.02;;;5.85;;
15254;SDS011;7730;49.610;11.136;2024-03-07T10:33:57;14.00;;;7.20;;
15254;SDS011;7730;49.610;11.136;2024-03-07T10:36:24;14.75;;;7.28;;
15254;SDS011;7730;49.610;11.136;2024-03-07T10:38:51;12.88;;;5.38;;
15254;SDS011;7730;49.610;11.136;2024-03-07T10:41:20;12.52;;;6.38;;
15254;SDS011;7730;49.610;11.136;2024-03-07T10:43:52;12.18;;;4.65;;
15254;SDS011;7730;49.610;11.136;2024-03-07T10:46:24;13.13;;;6.20;;
15254;SDS011;7730;49.610;11.136;2024-03-07T10:48:52;12.57;;;5.57;;
15254;SDS011;7730;49.610;11.136;2024-03-07T10:51:24;12.00;;;6.15;;
15254;SDS011;7730;49.610;11.136;2024-03-07T10:53:56;13.18;;;6.22;;
15254;SDS011;7730;49.610;11.136;2024-03-07T10:56:28;13.20;;;6.18;;
15254;SDS011;7730;49.610;11.136;2024-03-07T10:58:59;12.88;;;6.22;;
15254;SDS011;7730;49.610;11.136;2024-03-07T11:01:30;12.05;;;6.00;;
15254;SDS011;7730;49.610;11.136;2024-03-07T11:03:59;13.10;;;6.22;;
15254;SDS011;7730;49.610;11.136;2024-03-07T11:06:29;12.02;;;5.85;;
15254;SDS011;7730;49.610;11.136;2024-03-07T11:08:58;13.05;;;6.00;;
15254;SDS011;7730;49.610;11.136;2024-03-07T11:11:26;13.18;;;5.43;;
15254;SDS011;7730;49.610;11.136;2024-03-07T11:13:54;12.15;;;6.00;;
15254;SDS011;7730;49.610;11.136;2024-03-07T11:16:25;12.43;;;6.18;;
15254;SDS011;7730;49.610;11.136;2024-03-07T11:21:47;12.02;;;5.68;;
15254;SDS011;7730;49.610;11.136;2024-03-07T11:24:24;13.88;;;6.00;;
15254;SDS011;7730;49.610;11.136;2024-03-07T11:26:53;12.77;;;5.85;;
15254;SDS011;7730;49.610;11.136;2024-03-07T11:29:38;12.50;;;5.75;;
15254;SDS011;7730;49.610;11.136;2024-03-07T11:32:09;11.43;;;5.40;;
15254;SDS011;7730;49.610;11.136;2024-03-07T11:34:38;11.18;;;5.45;;
15254;SDS011;7730;49.610;11.136;2024-03-07T11:37:06;11.60;;;4.95;;
15254;SDS011;7730;49.610;11.136;2024-03-07T11:39:42;11.15;;;5.18;;
15254;SDS011;7730;49.610;11.136;2024-03-07T11:42:10;11.68;;;5.55;;
15254;SDS011;7730;49.610;11.136;2024-03-07T11:44:47;13.25;;;6.00;;
15254;SDS011;7730;49.610;11.136;2024-03-07T11:47:16;11.63;;;5.60;;
15254;SDS011;7730;49.610;11.136;2024-03-07T11:49:43;13.43;;;6.35;;
15254;SDS011;7730;49.610;11.136;2024-03-07T11:52:13;12.63;;;5.70;;
15254;SDS011;7730;49.610;11.136;2024-03-07T11:54:41;12.48;;;5.38;;
15254;SDS011;7730;49.610;11.136;2024-03-07T11:57:14;13.82;;;5.57;;
15254;SDS011;7730;49.610;11.136;2024-03-07T11:59:44;11.52;;;5.50;;
15254;SDS011;7730;49.610;11.136;2024-03-07T12:02:12;11.90;;;4.97;;
15254;SDS011;7730;49.610;11.136;2024-03-07T12:04:41;11.57;;;5.28;;
15254;SDS011;7730;49.610;11.136;2024-03-07T12:07:08;11.68;;;5.45;;
15254;SDS011;7730;49.610;11.136;2024-03-07T12:09:37;11.82;;;5.35;;
15254;SDS011;7730;49.610;11.136;2024-03-07T12:12:04;12.27;;;5.40;;
15254;SDS011;7730;49.610;11.136;2024-03-07T12:14:31;13.10;;;5.47;;
15254;SDS011;7730;49.610;11.136;2024-03-07T12:16:59;11.45;;;5.07;;
15254;SDS011;7730;49.610;11.136;2024-03-07T12:19:26;12.40;;;5.60;;
15254;SDS011;7730;49.610;11.136;2024-03-07T12:21:59;11.45;;;5.63;;
15254;SDS011;7730;49.610;11.136;2024-03-07T12:24:26;10.77;;;5.10;;
15254;SDS011;7730;49.610;11.136;2024-03-07T12:27:03;13.27;;;5.38;;
15254;SDS011;7730;49.610;11.136;2024-03-07T12:29:31;12.48;;;5.65;;
15254;SDS011;7730;49.610;11.136;2024-03-07T12:31:58;12.07;;;5.10;;
15254;SDS011;7730;49.610;11.136;2024-03-07T12:34:26;11.95;;;5.50;;
15254;SDS011;7730;49.610;11.136;2024-03-07T12:36:55;12.65;;;5.20;;
15254;SDS011;7730;49.610;11.136;2024-03-07T12:39:23;11.90;;;5.90;;
15254;SDS011;7730;49.610;11.136;2024-03-07T12:41:51;12.27;;;6.05;;
15254;SDS011;7730;49.610;11.136;2024-03-07T12:44:19;11.93;;;5.72;;
15254;SDS011;7730;49.610;11.136;2024-03-07T12:46:46;12.75;;;5.60;;
15254;SDS011;7730;49.610;11.136;2024-03-07T12:52:02;9.77;;;4.28;;
15254;SDS011;7730;49.610;11.136;2024-03-07T12:54:32;11.25;;;5.10;;
15254;SDS011;7730;49.610;11.136;2024-03-07T12:56:59;10.93;;;5.25;;
15254;SDS011;7730;49.610;11.136;2024-03-07T12:59:26;12.57;;;5.60;;
15254;SDS011;7730;49.610;11.136;2024-03-07T13:01:53;13.20;;;5.53;;
15254;SDS011;7730;49.610;11.136;2024-03-07T13:04:22;12.65;;;5.82;;
15254;SDS011;7730;49.610;11.136;2024-03-07T13:06:50;11.90;;;5.38;;
15254;SDS011;7730;49.610;11.136;2024-03-07T13:09:17;12.00;;;5.30;;
15254;SDS011;7730;49.610;11.136;2024-03-07T13:11:53;12.52;;;5.43;;
15254;SDS011;7730;49.610;11.136;2024-03-07T13:14:20;14.02;;;6.40;;
15254;SDS011;7730;49.610;11.136;2024-03-07T13:16:47;12.68;;;5.75;;
15254;SDS011;7730;49.610;11.136;2024-03-07T13:19:15;12.80;;;6.32;;
15254;SDS011;7730;49.610;11.136;2024-03-07T13:21:45;13.10;;;6.25;;
15254;SDS011;7730;49.610;11.136;2024-03-07T13:24:17;14.57;;;6.57;;
15254;SDS011;7730;49.610;11.136;2024-03-07T13:26:45;14.70;;;6.05;;
15254;SDS011;7730;49.610;11.136;2024-03-07T13:29:14;12.48;;;5.90;;
15254;SDS011;7730;49.610;11.136;2024-03-07T13:31:42;13.00;;;6.00;;
15254;SDS011;7730;49.610;11.136;2024-03-07T13:34:09;12.48;;;5.88;;
15254;SDS011;7730;49.610;11.136;2024-03-07T13:36:38;12.98;;;6.07;;
15254;SDS011;7730;49.610;11.136;2024-03-07T13:39:05;12.73;;;6.00;;
15254;SDS011;7730;49.610;11.136;2024-03-07T13:41:36;12.05;;;5.25;;
15254;SDS011;7730;49.610;11.136;2024-03-07T13:44:03;11.43;;;5.18;;
15254;SDS011;7730;49.610;11.136;2024-03-07T13:46:31;12.07;;;5.80;;
15254;SDS011;7730;49.610;11.136;2024-03-07T13:48:59;12.50;;;5.80;;
15254;SDS011;7730;49.610;11.136;2024-03-07T13:51:32;13.25;;;5.80;;
15254;SDS011;7730;49.610;11.136;2024-03-07T13:54:00;13.65;;;6.28;;
15254;SDS011;7730;49.610;11.136;2024-03-07T13:56:52;12.65;;;6.07;;
15254;SDS011;7730;49.610;11.136;2024-03-07T14:02:13;14.68;;;7.47;;
15254;SDS011;7730;49.610;11.136;2024-03-07T14:04:59;13.20;;;6.50;;
15254;SDS011;7730;49.610;11.136;2024-03-07T14:07:41;14.30;;;7.32;;
15254;SDS011;7730;49.610;11.136;2024-03-07T14:10:19;13.30;;;6.90;;
15254;SDS011;7730;49.610;11.136;2024-03-07T14:13:03;14.10;;;6.82;;
15254;SDS011;7730;49.610;11.136;2024-03-07T14:18:35;14.20;;;7.45;;
15254;SDS011;7730;49.610;11.136;2024-03-07T14:21:26;13.63;;;6.22;;
15254;SDS011;7730;49.610;11.136;2024-03-07T14:24:08;14.25;;;6.80;;
15254;SDS011;7730;49.610;11.136;2024-03-07T14:26:46;14.05;;;7.47;;
15254;SDS011;7730;49.610;11.136;2024-03-07T14:29:20;12.77;;;6.07;;
15254;SDS011;7730;49.610;11.136;2024-03-07T14:31:49;13.73;;;6.88;;
15254;SDS011;7730;49.610;11.136;2024-03-07T14:34:23;13.35;;;6.28;;
15254;SDS011;7730;49.610;11.136;2024-03-07T14:36:53;14.23;;;7.15;;
15254;SDS011;7730;49.610;11.136;2024-03-07T14:39:23;13.18;;;6.10;;
15254;SDS011;7730;49.610;11.136;2024-03-07T14:41:51;13.73;;;7.22;;
15254;SDS011;7730;49.610;11.136;2024-03-07T14:44:19;13.77;;;7.07;;
15254;SDS011;7730;49.610;11.136;2024-03-07T14:46:47;13.35;;;6.93;;
15254;SDS011;7730;49.610;11.136;2024-03-07T14:49:16;12.90;;;5.82;;